Time;durP1;ratioP1;P1;durP2;ratioP2;P2;SDS_P1;SDS_P2;PMS_P1;PMS_P2;Temp;Humidity;BMP_temperature;BMP_pressure;BME280_temperature;BME280_humidity;BME280_pressure;Samples;Min_cycle;Max_cycle;Signal;HPM_P1;HPM_P2
2022/03/01 00:02:13;;;;;;;0.20;0.00;;;;;;;23.33;36.66;103199.03;5013512;28;20026;-64
2022/03/01 00:04:38;;;;;;;0.00;0.00;;;;;;;23.33;36.53;103193.53;5013453;28;20050;-64
2022/03/01 00:07:04;;;;;;;0.22;0.00;;;;;;;23.31;36.47;103198.31;5032983;28;20551;-63
2022/03/01 00:09:30;;;;;;;0.08;0.00;;;;;;;23.30;36.78;103193.84;5032986;28;20032;-63
2022/03/01 00:11:55;;;;;;;0.20;0.00;;;;;;;23.29;36.09;103192.97;5032707;28;20033;-63
2022/03/01 00:14:20;;;;;;;0.20;0.00;;;;;;;23.27;36.42;103188.66;5032901;28;20048;-63
2022/03/01 00:16:46;;;;;;;0.00;0.00;;;;;;;23.28;36.79;103184.88;5016286;28;20033;-63
2022/03/01 00:19:11;;;;;;;0.10;0.00;;;;;;;23.26;36.26;103182.28;5014596;28;20042;-63
2022/03/01 00:21:36;;;;;;;0.00;0.00;;;;;;;23.24;36.78;103180.72;5013260;28;20053;-64
2022/03/01 00:24:02;;;;;;;0.00;0.00;;;;;;;23.23;36.67;103170.75;5012916;28;20464;-64
2022/03/01 00:26:27;;;;;;;0.00;0.00;;;;;;;23.22;36.64;103171.78;5027654;28;20434;-64
2022/03/01 00:28:53;;;;;;;0.00;0.00;;;;;;;23.22;36.69;103158.03;5032557;28;20583;-63
2022/03/01 00:31:18;;;;;;;0.70;0.17;;;;;;;23.21;36.45;103159.06;5033022;28;20036;-63
2022/03/01 00:33:43;;;;;;;0.00;0.00;;;;;;;23.19;36.48;103158.34;5032352;28;20026;-64
2022/03/01 00:36:10;;;;;;;0.10;0.00;;;;;;;23.18;36.59;103153.84;5020191;28;20041;-63
2022/03/01 00:38:35;;;;;;;0.10;0.00;;;;;;;23.19;36.44;103152.84;5012801;28;20424;-64
2022/03/01 00:41:00;;;;;;;0.00;0.00;;;;;;;23.18;36.56;103151.09;5012802;28;20029;-64
2022/03/01 00:43:26;;;;;;;0.00;0.00;;;;;;;23.17;36.22;103149.38;5012801;28;20358;-63
2022/03/01 00:45:52;;;;;;;0.82;0.10;;;;;;;23.16;36.58;103150.38;5021590;28;20083;-64
2022/03/01 00:48:18;;;;;;;0.00;0.00;;;;;;;23.15;35.97;103148.66;5032518;28;20141;-63
2022/03/01 00:50:43;;;;;;;0.00;0.00;;;;;;;23.14;36.53;103141.44;5032048;28;20470;-64
2022/03/01 00:53:09;;;;;;;0.10;0.00;;;;;;;23.16;35.87;103147.63;5032443;28;20030;-64
2022/03/01 00:55:34;;;;;;;0.00;0.00;;;;;;;23.13;35.72;103142.44;5024817;28;20046;-64
2022/03/01 00:58:00;;;;;;;0.10;0.10;;;;;;;23.11;35.86;103148.97;5012364;28;20104;-64
2022/03/01 01:00:28;;;;;;;0.30;0.00;;;;;;;23.13;36.22;103142.44;5012634;28;20112;-64
2022/03/01 01:02:53;;;;;;;0.00;0.00;;;;;;;23.12;35.85;103138.84;5013512;28;20068;-63
2022/03/01 01:05:18;;;;;;;0.00;0.00;;;;;;;23.11;35.86;103145.34;5016956;28;20064;-63
2022/03/01 01:07:44;;;;;;;0.10;0.00;;;;;;;23.09;36.04;103145.50;5031979;28;20052;-63
2022/03/01 01:10:10;;;;;;;0.60;0.00;;;;;;;23.09;35.67;103142.75;5032181;28;20032;-63
2022/03/01 01:12:36;;;;;;;0.00;0.00;;;;;;;23.09;36.45;103136.41;5032126;28;20025;-63
2022/03/01 01:15:03;;;;;;;0.00;0.00;;;;;;;23.08;35.77;103130.06;5029689;28;20051;-63
2022/03/01 01:17:28;;;;;;;0.00;0.00;;;;;;;23.07;35.97;103132.94;5012388;28;20072;-64
2022/03/01 01:19:54;;;;;;;0.00;0.00;;;;;;;23.08;36.05;103130.06;5012110;28;20508;-63
2022/03/01 01:25:04;;;;;;;0.10;0.10;;;;;;;23.07;35.56;103121.97;5014563;28;20492;-63
2022/03/01 01:27:30;;;;;;;0.10;0.00;;;;;;;23.07;35.95;103121.97;5032139;28;20033;-63
2022/03/01 01:29:55;;;;;;;0.00;0.00;;;;;;;23.05;35.55;103113.03;5031650;28;20546;-63
2022/03/01 01:32:21;;;;;;;0.00;0.00;;;;;;;23.05;35.52;103118.50;5031021;28;20022;-63
2022/03/01 01:34:46;;;;;;;0.00;0.00;;;;;;;23.03;35.83;103109.56;5031760;28;20029;-64
2022/03/01 01:37:11;;;;;;;0.00;0.00;;;;;;;23.04;35.69;103106.69;5012549;28;20030;-64
2022/03/01 01:39:37;;;;;;;0.00;0.00;;;;;;;23.04;35.48;103097.59;5012114;28;20080;-64
2022/03/01 01:42:02;;;;;;;0.00;0.00;;;;;;;23.04;35.68;103095.69;5012111;28;20057;-64
2022/03/01 01:44:32;;;;;;;0.20;0.13;;;;;;;23.04;35.64;103095.69;5012150;28;20453;-64
2022/03/01 01:46:57;;;;;;;0.00;0.00;;;;;;;23.03;35.70;103095.84;5012071;28;20105;-63
2022/03/01 01:49:22;;;;;;;0.30;0.10;;;;;;;23.02;35.30;103086.75;5012185;28;20109;-63
2022/03/01 01:51:48;;;;;;;0.32;0.15;;;;;;;23.01;35.33;103085.03;5011721;28;20373;-64
2022/03/01 01:54:14;;;;;;;0.00;0.00;;;;;;;23.01;35.23;103087.78;5012014;28;20042;-63
2022/03/01 01:56:39;;;;;;;0.00;0.00;;;;;;;23.00;35.70;103086.00;5029140;28;20045;-63
2022/03/01 01:59:05;;;;;;;0.00;0.00;;;;;;;23.01;35.44;103089.63;5031859;28;20033;-63
2022/03/01 02:01:30;;;;;;;0.10;0.00;;;;;;;23.01;35.12;103085.03;5031794;28;20416;-63
2022/03/01 02:03:56;;;;;;;0.00;0.00;;;;;;;23.01;35.29;103090.50;5035381;28;20033;-63
2022/03/01 02:06:21;;;;;;;0.00;0.00;;;;;;;22.99;35.50;103087.03;5021147;28;20029;-63
2022/03/01 02:08:46;;;;;;;0.00;0.00;;;;;;;22.98;35.50;103074.31;5032093;28;20091;-63
2022/03/01 02:11:12;;;;;;;0.03;0.00;;;;;;;23.00;34.89;103077.78;5035306;28;20025;-63
2022/03/01 02:13:37;;;;;;;0.00;0.00;;;;;;;22.99;35.15;103084.28;5035138;28;20029;-64
2022/03/01 02:16:03;;;;;;;0.00;0.00;;;;;;;22.98;35.38;103085.31;5022705;28;20025;-64
2022/03/01 02:18:28;;;;;;;0.15;0.00;;;;;;;22.99;35.17;103087.03;5015382;28;20041;-63
2022/03/01 02:20:54;;;;;;;0.00;0.00;;;;;;;22.98;35.38;103082.56;5021545;28;20025;-63
2022/03/01 02:23:19;;;;;;;0.10;0.00;;;;;;;22.96;35.58;103076.34;5017121;28;20064;-63
2022/03/01 02:25:44;;;;;;;1.85;0.10;;;;;;;22.96;34.94;103076.34;5024198;28;20491;-63
2022/03/01 02:28:09;;;;;;;0.10;0.00;;;;;;;22.96;35.29;103068.13;5035007;28;20421;-63
2022/03/01 02:30:35;;;;;;;0.03;0.00;;;;;;;22.96;35.25;103065.38;5034886;28;20025;-64
2022/03/01 02:33:00;;;;;;;0.00;0.00;;;;;;;22.95;35.33;103063.66;5034747;28;20369;-63
2022/03/01 02:35:25;;;;;;;0.10;0.00;;;;;;;22.97;34.80;103063.50;5016759;28;20396;-64
2022/03/01 02:37:51;;;;;;;0.00;0.00;;;;;;;22.95;34.91;103060.91;5014617;28;20032;-63
2022/03/01 02:40:16;;;;;;;0.00;0.00;;;;;;;22.95;35.12;103063.66;5013815;28;20061;-63
2022/03/01 02:42:44;;;;;;;0.00;0.00;;;;;;;22.94;34.81;103059.19;5014730;28;20075;-64
2022/03/01 02:45:13;;;;;;;0.05;0.00;;;;;;;22.94;34.65;103056.44;5030951;28;20029;-63
2022/03/01 02:47:38;;;;;;;0.00;0.00;;;;;;;22.95;35.07;103062.78;5034467;28;20026;-64
2022/03/01 02:50:06;;;;;;;0.00;0.00;;;;;;;22.93;35.09;103060.19;5034625;28;20029;-63
2022/03/01 02:52:32;;;;;;;0.03;0.00;;;;;;;22.94;34.71;103056.44;5034842;28;20053;-63
2022/03/01 02:54:57;;;;;;;1.38;0.00;;;;;;;22.94;34.86;103050.97;5019536;28;20046;-63
2022/03/01 02:57:24;;;;;;;0.00;0.00;;;;;;;22.93;34.76;103054.72;5014683;28;20025;-63
2022/03/01 02:59:50;;;;;;;0.00;0.00;;;;;;;22.93;34.97;103049.22;5014257;28;20053;-63
2022/03/01 03:02:15;;;;;;;0.00;0.00;;;;;;;22.93;34.84;103051.97;5014582;28;20109;-63
2022/03/01 03:04:41;;;;;;;0.00;0.00;;;;;;;22.92;34.68;103053.00;5028924;28;20032;-63
2022/03/01 03:07:07;;;;;;;0.00;0.00;;;;;;;22.92;34.49;103053.00;5037859;28;20033;-63
2022/03/01 03:09:32;;;;;;;0.00;0.00;;;;;;;22.92;34.34;103047.50;5034214;28;20030;-63
2022/03/01 03:11:58;;;;;;;0.00;0.00;;;;;;;22.92;34.67;103047.50;5033861;28;20503;-63
2022/03/01 03:14:23;;;;;;;0.00;0.00;;;;;;;22.91;34.68;103051.25;5024571;28;20099;-63
2022/03/01 03:16:49;;;;;;;0.00;0.00;;;;;;;22.91;34.95;103045.78;5014071;28;20030;-64
2022/03/01 03:19:15;;;;;;;0.00;0.00;;;;;;;22.90;34.23;103038.56;5014224;28;20026;-63
2022/03/01 03:21:42;;;;;;;0.00;0.00;;;;;;;22.90;34.38;103041.31;5013957;28;20037;-63
2022/03/01 03:24:07;;;;;;;0.20;0.10;;;;;;;22.90;34.25;103041.31;5020702;28;20041;-63
2022/03/01 03:26:33;;;;;;;0.00;0.00;;;;;;;22.91;34.25;103039.44;5033892;28;20372;-63
2022/03/01 03:28:58;;;;;;;0.00;0.00;;;;;;;22.90;34.03;103038.56;5033615;28;20017;-63
2022/03/01 03:31:23;;;;;;;0.00;0.00;;;;;;;22.89;34.56;103036.84;5033807;28;20026;-63
2022/03/01 03:33:49;;;;;;;0.00;0.00;;;;;;;22.88;34.86;103035.09;5029127;28;20465;-63
2022/03/01 03:36:14;;;;;;;0.00;0.00;;;;;;;22.88;34.25;103040.59;5013837;28;20041;-63
2022/03/01 03:38:39;;;;;;;0.00;0.00;;;;;;;22.88;34.60;103035.09;5013686;28;20025;-63
2022/03/01 03:41:04;;;;;;;0.00;0.00;;;;;;;22.89;34.25;103025.88;5020846;28;20036;-63
2022/03/01 03:43:30;;;;;;;0.17;0.00;;;;;;;22.89;34.16;103020.38;5032890;28;20027;-63
2022/03/01 03:45:55;;;;;;;0.00;0.00;;;;;;;22.88;34.56;103018.66;5033067;28;20147;-63
2022/03/01 03:48:20;;;;;;;0.00;0.00;;;;;;;22.89;33.97;103011.28;5033484;28;20453;-63
2022/03/01 03:50:45;;;;;;;0.00;0.00;;;;;;;22.87;34.24;103016.94;5032173;28;20072;-63
2022/03/01 03:53:11;;;;;;;0.00;0.00;;;;;;;22.88;33.92;103020.53;5033404;28;20031;-63
2022/03/01 03:55:36;;;;;;;0.00;0.00;;;;;;;22.87;34.31;103005.94;5014493;28;20474;-63
2022/03/01 03:58:01;;;;;;;0.00;0.00;;;;;;;22.86;34.73;103004.22;5013497;28;20030;-63
2022/03/01 04:00:27;;;;;;;0.10;0.00;;;;;;;22.87;33.91;103005.94;5013530;28;20025;-63
2022/03/01 04:02:52;;;;;;;0.05;0.00;;;;;;;22.86;33.97;103006.97;5011968;28;20065;-63
2022/03/01 04:05:18;;;;;;;0.00;0.00;;;;;;;22.86;34.23;103004.22;5028792;28;20104;-63
2022/03/01 04:07:46;;;;;;;0.25;0.00;;;;;;;22.87;33.72;103013.31;5032735;28;20021;-63
2022/03/01 04:10:12;;;;;;;0.00;0.00;;;;;;;22.85;33.72;103002.50;5033081;28;20029;-63
2022/03/01 04:12:37;;;;;;;0.00;0.00;;;;;;;22.86;34.03;102987.78;5032891;28;20033;-63
2022/03/01 04:15:05;;;;;;;0.00;0.00;;;;;;;22.85;34.05;102991.53;5019229;28;20026;-64
2022/03/01 04:17:30;;;;;;;0.00;0.00;;;;;;;22.86;34.06;102986.91;5013257;28;20385;-63
2022/03/01 04:19:56;;;;;;;0.00;0.00;;;;;;;22.84;33.99;102984.28;5013045;28;20028;-63
2022/03/01 04:22:21;;;;;;;0.10;0.00;;;;;;;22.83;34.34;102977.06;5013224;28;20052;-63
2022/03/01 04:24:47;;;;;;;0.00;0.00;;;;;;;22.85;34.32;102986.03;5023127;28;20045;-63
2022/03/01 04:27:12;;;;;;;0.13;0.00;;;;;;;22.81;34.01;102979.06;5032886;28;20067;-63
2022/03/01 04:29:38;;;;;;;0.00;0.00;;;;;;;22.82;33.80;102983.56;5032521;28;20048;-63
2022/03/01 04:32:03;;;;;;;0.00;0.00;;;;;;;22.81;33.58;102979.06;5032916;28;20097;-63
2022/03/01 04:34:29;;;;;;;0.00;0.00;;;;;;;22.83;33.35;102978.94;5030455;28;20021;-63
2022/03/01 04:36:54;;;;;;;0.00;0.00;;;;;;;22.81;33.44;102968.09;5015155;28;20073;-63
2022/03/01 04:39:20;;;;;;;0.00;0.00;;;;;;;22.81;33.73;102968.09;5013489;28;20515;-63
2022/03/01 04:41:46;;;;;;;0.10;0.00;;;;;;;22.82;33.77;102969.84;5012466;28;20025;-63
2022/03/01 04:44:11;;;;;;;0.00;0.00;;;;;;;22.80;33.94;102963.63;5018268;28;20389;-63
2022/03/01 04:46:36;;;;;;;0.00;0.00;;;;;;;22.82;34.01;102956.16;5032322;28;20021;-63
2022/03/01 04:49:03;;;;;;;0.13;0.00;;;;;;;22.79;33.44;102965.50;5032506;28;20026;-63
2022/03/01 04:51:29;;;;;;;0.00;0.00;;;;;;;22.80;33.22;102949.91;5032439;28;20376;-63
2022/03/01 04:53:54;;;;;;;0.10;0.10;;;;;;;22.80;33.21;102949.91;5028949;28;20030;-64
2022/03/01 04:56:19;;;;;;;0.00;0.00;;;;;;;22.79;33.64;102946.31;5012712;28;20457;-63
2022/03/01 04:58:45;;;;;;;0.00;0.00;;;;;;;22.80;33.19;102944.44;5012414;28;20028;-63
2022/03/01 05:01:10;;;;;;;0.00;0.00;;;;;;;22.80;32.99;102938.94;5012862;28;20044;-63
2022/03/01 05:03:35;;;;;;;0.15;0.00;;;;;;;23.06;33.19;102942.78;5012746;28;20401;-63
2022/03/01 05:06:01;;;;;;;0.10;0.00;;;;;;;23.17;32.80;102924.34;5032090;28;20362;-63
2022/03/01 05:08:30;;;;;;;0.00;0.00;;;;;;;23.24;32.62;102930.97;5032288;28;20021;-63
2022/03/01 05:10:58;;;;;;;0.10;0.00;;;;;;;23.31;32.74;102926.56;5032079;28;20048;-63
2022/03/01 05:13:24;;;;;;;0.13;0.10;;;;;;;23.36;32.66;102929.75;5033973;28;20056;-63
2022/03/01 05:15:50;;;;;;;0.10;0.00;;;;;;;23.40;31.95;102936.66;5019213;28;20026;-63
2022/03/01 05:18:15;;;;;;;0.00;0.00;;;;;;;23.44;32.00;102924.31;5013069;28;20108;-63
2022/03/01 05:20:40;;;;;;;0.25;0.00;;;;;;;23.48;32.00;102931.22;5012298;28;20495;-63
2022/03/01 05:23:06;;;;;;;0.10;0.00;;;;;;;23.51;31.74;102932.78;5012474;28;20053;-63
2022/03/01 05:25:31;;;;;;;0.00;0.00;;;;;;;23.56;31.47;102925.84;5027920;28;20060;-63
2022/03/01 05:27:57;;;;;;;0.00;0.00;;;;;;;23.57;31.79;102927.59;5031774;28;20036;-63
2022/03/01 05:30:24;;;;;;;0.00;0.00;;;;;;;23.60;31.55;102927.28;5032168;28;20036;-62
2022/03/01 05:32:52;;;;;;;0.00;0.00;;;;;;;23.62;31.26;102919.75;5031841;28;20033;-63
2022/03/01 05:35:26;;;;;;;0.00;0.00;;;;;;;23.65;31.24;102924.91;5018299;28;20058;-63
2022/03/01 05:37:53;;;;;;;;;;;;;;;23.69;31.11;102926.34;5014473;28;20025;-63
2022/03/01 05:40:21;;;;;;;0.00;0.00;;;;;;;23.69;31.06;102931.84;5016171;28;20300;-63
2022/03/01 05:42:47;;;;;;;0.10;0.00;;;;;;;23.73;31.26;102934.28;5015729;28;20104;-63
2022/03/01 05:45:13;;;;;;;0.00;0.00;;;;;;;23.75;30.81;102934.97;5031562;28;20411;-63
2022/03/01 05:47:40;;;;;;;0.00;0.00;;;;;;;23.77;31.23;102924.69;5035607;28;20076;-63
2022/03/01 05:50:06;;;;;;;0.10;0.00;;;;;;;23.77;30.62;102927.44;5034351;28;20034;-63
2022/03/01 05:52:31;;;;;;;0.00;0.00;;;;;;;23.81;31.12;102939.81;5035310;28;20029;-63
2022/03/01 05:54:57;;;;;;;0.00;0.00;;;;;;;23.81;30.83;102942.56;5022019;28;20038;-63
2022/03/01 05:57:27;;;;;;;0.00;0.00;;;;;;;23.79;31.07;102947.38;5016204;28;20022;-63
2022/03/01 05:59:53;;;;;;;0.00;0.00;;;;;;;23.83;30.98;102940.53;5015358;28;20022;-63
2022/03/01 06:02:18;;;;;;;0.05;0.00;;;;;;;23.82;31.05;102936.91;5015784;28;20064;-63
2022/03/01 06:04:44;;;;;;;0.00;0.00;;;;;;;23.82;30.42;102931.44;5026681;28;20040;-63
2022/03/01 06:07:09;;;;;;;0.00;0.00;;;;;;;23.85;30.54;102946.72;5035438;28;20055;-63
2022/03/01 06:09:35;;;;;;;0.00;0.00;;;;;;;23.85;31.05;102924.75;5035263;28;20064;-64
2022/03/01 06:12:00;;;;;;;0.08;0.00;;;;;;;23.88;30.96;102924.44;5035073;28;20253;-63
2022/03/01 06:14:25;;;;;;;0.00;0.00;;;;;;;23.87;30.49;102928.22;5026102;28;20388;-63
2022/03/01 06:16:50;;;;;;;0.00;0.00;;;;;;;23.87;30.95;102939.22;5015266;28;20032;-63
2022/03/01 06:19:16;;;;;;;0.00;0.00;;;;;;;23.88;30.42;102927.19;5015483;28;20084;-63
2022/03/01 06:21:41;;;;;;;0.00;0.00;;;;;;;23.90;30.75;102925.16;5015145;28;20026;-63
2022/03/01 06:24:06;;;;;;;0.00;0.00;;;;;;;23.90;30.56;102933.41;5021333;28;20037;-63
2022/03/01 06:26:33;;;;;;;0.00;0.00;;;;;;;23.90;30.38;102930.66;5035098;28;20029;-63
2022/03/01 06:28:58;;;;;;;0.00;0.00;;;;;;;23.92;30.33;102931.34;5034676;28;20021;-63
2022/03/01 06:31:24;;;;;;;0.00;0.00;;;;;;;23.90;30.50;102914.16;5037860;28;20036;-63
2022/03/01 06:33:49;;;;;;;0.00;0.00;;;;;;;23.93;30.61;102917.44;5034065;28;20080;-63
2022/03/01 06:36:14;;;;;;;0.00;0.00;;;;;;;23.94;30.29;102907.31;5034842;28;20029;-63
2022/03/01 06:38:40;;;;;;;0.00;0.00;;;;;;;23.94;30.13;102910.94;5034590;28;20457;-63
2022/03/01 06:41:05;;;;;;;0.00;0.00;;;;;;;23.95;30.27;102914.53;5034842;28;20063;-63
2022/03/01 06:43:30;;;;;;;0.00;0.00;;;;;;;23.95;29.97;102914.53;5033771;28;20064;-64
2022/03/01 06:45:55;;;;;;;0.00;0.00;;;;;;;23.94;30.06;102921.06;5014576;28;20362;-63
2022/03/01 06:48:21;;;;;;;0.00;0.00;;;;;;;23.97;30.61;102909.75;5014550;28;20454;-63
2022/03/01 06:50:46;;;;;;;0.00;0.00;;;;;;;23.97;30.56;102923.50;5014676;28;20067;-63
2022/03/01 06:53:13;;;;;;;0.00;0.00;;;;;;;23.96;30.43;102932.75;5015054;28;20030;-63
2022/03/01 06:55:42;;;;;;;0.00;0.00;;;;;;;23.98;29.92;102934.31;5032008;28;20076;-63
2022/03/01 07:01:50;;;;;;;0.00;0.00;;;;;;;23.97;29.98;102937.22;4305437;26;20064;-68
2022/03/01 07:04:15;;;;;;;0.00;0.00;;;;;;;23.99;30.35;102932.44;5050837;22;20381;-62
2022/03/01 07:06:40;;;;;;;0.00;0.00;;;;;;;23.98;30.28;102936.19;5053580;28;20078;-61
2022/03/01 07:09:05;;;;;;;0.00;0.00;;;;;;;23.99;30.39;102937.91;5054129;28;20024;-61
2022/03/01 07:11:31;;;;;;;0.00;0.00;;;;;;;23.99;30.39;102932.44;5050527;28;20024;-61
2022/03/01 07:13:56;;;;;;;0.00;0.00;;;;;;;24.01;30.38;102938.63;5052495;28;20027;-62
2022/03/01 07:16:25;;;;;;;0.00;0.00;;;;;;;24.00;29.88;102945.16;5087965;28;20021;-61
2022/03/01 07:18:50;;;;;;;0.00;0.00;;;;;;;24.01;30.63;102930.38;5063697;28;20068;-62
2022/03/01 07:21:15;;;;;;;0.00;0.00;;;;;;;24.01;30.57;102941.38;5062427;28;20051;-62
2022/03/01 07:23:41;;;;;;;0.00;0.00;;;;;;;24.03;30.30;102927.50;5060534;28;20032;-62
2022/03/01 07:26:07;;;;;;;0.28;0.10;;;;;;;24.03;30.13;102922.88;5052918;28;20075;-61
2022/03/01 07:28:34;;;;;;;0.00;0.00;;;;;;;24.04;29.86;102913.59;5057346;28;20078;-60
2022/03/01 07:30:59;;;;;;;0.08;0.00;;;;;;;24.02;30.34;102921.16;5072194;28;20020;-61
2022/03/01 07:33:25;;;;;;;0.00;0.00;;;;;;;24.05;30.36;102914.47;5060593;28;20511;-62
2022/03/01 07:35:52;;;;;;;0.00;0.00;;;;;;;24.04;30.38;102913.59;5057505;28;20033;-61
2022/03/01 07:38:18;;;;;;;0.57;0.00;;;;;;;24.05;30.51;102915.31;5034748;28;20052;-60
2022/03/01 07:40:43;;;;;;;0.00;0.00;;;;;;;24.05;30.14;102909.84;5034696;28;20476;-60
2022/03/01 07:43:09;;;;;;;0.00;0.00;;;;;;;24.05;30.38;102907.09;5055521;28;20029;-61
2022/03/01 07:45:35;;;;;;;0.10;0.03;;;;;;;24.06;30.44;102905.19;5054116;28;20025;-62
2022/03/01 07:48:01;;;;;;;0.05;0.00;;;;;;;24.08;30.56;102903.16;5053705;28;20071;-60
2022/03/01 07:50:28;;;;;;;0.00;0.00;;;;;;;24.07;30.29;102891.28;5053659;28;20040;-60
2022/03/01 07:52:54;;;;;;;0.00;0.00;;;;;;;24.08;30.80;102883.91;5052623;28;20025;-61
2022/03/01 07:55:20;;;;;;;0.45;0.00;;;;;;;24.08;30.65;102887.53;5054022;28;20029;-62
2022/03/01 07:57:46;;;;;;;0.00;0.00;;;;;;;24.08;30.23;102879.28;5054203;28;20060;-60
2022/03/01 08:00:12;;;;;;;1.65;0.00;;;;;;;24.09;30.61;102871.91;5053041;28;20371;-59
2022/03/01 08:02:38;;;;;;;0.00;0.00;;;;;;;24.09;30.87;102867.25;5051496;28;20060;-59
2022/03/01 08:05:05;;;;;;;0.00;0.00;;;;;;;24.08;31.02;102860.03;5051517;28;20048;-59
2022/03/01 08:07:30;;;;;;;0.10;0.00;;;;;;;24.09;30.73;102861.75;5053774;28;20021;-60
2022/03/01 08:09:56;;;;;;;0.10;0.10;;;;;;;24.10;31.44;102858.00;5053633;28;20655;-60
2022/03/01 08:12:21;;;;;;;0.30;0.00;;;;;;;24.10;30.86;102871.72;5053441;28;20055;-64
2022/03/01 08:14:46;;;;;;;1.55;0.00;;;;;;;24.09;30.92;102861.75;5052280;28;20021;-63
2022/03/01 08:17:12;;;;;;;2.10;0.43;;;;;;;24.09;31.08;102867.25;5053540;28;20452;-62
2022/03/01 08:19:37;;;;;;;3.72;0.40;;;;;;;24.09;31.35;102864.50;5052618;28;20024;-64
2022/03/01 08:22:03;;;;;;;6.82;0.50;;;;;;;24.10;31.31;102874.47;5053526;28;20479;-67
2022/03/01 08:24:28;;;;;;;4.20;0.68;;;;;;;24.11;31.66;102870.69;5051926;28;20020;-63
2022/03/01 08:26:54;;;;;;;3.95;0.35;;;;;;;24.11;31.90;102873.44;5052609;28;20025;-65
2022/03/01 08:29:20;;;;;;;5.40;0.60;;;;;;;24.13;32.20;102868.66;5053255;28;20494;-63
2022/03/01 08:31:46;;;;;;;3.40;0.63;;;;;;;24.13;32.26;102868.66;5051790;28;20032;-63
2022/03/01 08:34:13;;;;;;;3.92;0.50;;;;;;;24.15;32.15;102866.59;5051395;28;20024;-62
2022/03/01 08:36:38;;;;;;;3.67;0.50;;;;;;;24.14;32.06;102864.03;5053634;28;20463;-66
2022/03/01 08:39:04;;;;;;;3.50;0.30;;;;;;;24.14;32.01;102864.88;5052452;28;20033;-65
2022/03/01 08:41:30;;;;;;;5.43;0.35;;;;;;;24.13;32.33;102867.78;5051560;28;20096;-64
2022/03/01 08:43:56;;;;;;;1.42;0.32;;;;;;;24.14;32.76;102858.53;5052599;28;20485;-64
2022/03/01 08:46:23;;;;;;;1.27;0.40;;;;;;;24.14;33.04;102853.88;5052435;28;20028;-65
2022/03/01 08:48:51;;;;;;;4.75;0.68;;;;;;;;;;5053384;28;20025;-63
2022/03/01 08:51:16;;;;;;;1.85;0.38;;;;;;;24.14;32.95;102853.88;5054714;28;20032;-64
2022/03/01 08:53:42;;;;;;;4.18;0.47;;;;;;;24.14;32.90;102850.28;5049986;28;20383;-64
2022/03/01 08:56:08;;;;;;;4.28;0.55;;;;;;;24.13;33.71;102841.19;5044677;28;20033;-64
2022/03/01 08:58:33;;;;;;;3.28;0.73;;;;;;;24.13;33.48;102846.66;5057877;28;20024;-64
2022/03/01 09:00:59;;;;;;;2.17;0.40;;;;;;;24.14;33.79;102837.41;5062164;28;20032;-63
2022/03/01 09:03:25;;;;;;;1.35;0.20;;;;;;;24.14;33.56;102842.91;5057947;28;20028;-63
2022/03/01 09:05:51;;;;;;;0.43;0.30;;;;;;;24.13;33.94;102841.19;5066484;28;20009;-63
2022/03/01 09:08:16;;;;;;;1.02;0.43;;;;;;;24.13;33.42;102843.91;5050303;28;20368;-63
2022/03/01 09:10:41;;;;;;;1.70;0.43;;;;;;;24.11;34.02;102837.72;5037777;28;20491;-63
2022/03/01 09:13:07;;;;;;;0.17;0.17;;;;;;;24.13;33.61;102835.69;5049141;28;20028;-63
2022/03/01 09:15:33;;;;;;;0.82;0.43;;;;;;;24.14;34.33;102831.91;5036239;28;20049;-63
2022/03/01 09:18:05;;;;;;;5.35;0.57;;;;;;;24.15;34.23;102833.63;5036301;28;20460;-62
2022/03/01 09:20:31;;;;;;;1.38;0.25;;;;;;;24.14;34.23;102826.41;5036162;28;20035;-62
2022/03/01 09:22:57;;;;;;;5.07;0.40;;;;;;;24.14;34.08;102826.41;5051360;28;20112;-63
2022/03/01 09:25:23;;;;;;;109.15;6.57;;;;;;;24.14;34.00;102823.66;5055864;28;20028;-65
2022/03/01 09:27:48;;;;;;;50.88;4.82;;;;;;;24.06;34.60;102823.63;5056064;28;20033;-59
2022/03/01 09:30:14;;;;;;;46.58;3.97;;;;;;;24.06;33.89;102826.38;5053977;28;20033;-60
2022/03/01 09:32:40;;;;;;;36.22;3.75;;;;;;;24.03;34.02;102817.59;5044626;28;20026;-63
2022/03/01 09:35:06;;;;;;;20.20;2.10;;;;;;;24.03;34.16;102823.09;5047115;28;20198;-64
2022/03/01 09:37:32;;;;;;;24.77;3.17;;;;;;;23.98;34.48;102820.81;5051319;28;20021;-64
2022/03/01 09:40:03;;;;;;;29.55;2.20;;;;;;;23.98;34.09;102818.91;5054084;28;20463;-63
2022/03/01 09:42:28;;;;;;;21.02;2.42;;;;;;;23.94;34.75;102819.41;5053728;28;20060;-64
2022/03/01 09:44:55;;;;;;;13.77;2.58;;;;;;;23.98;34.32;102815.31;5054087;28;20060;-63
2022/03/01 09:47:20;;;;;;;10.88;1.35;;;;;;;23.96;34.26;102812.72;5055562;28;20021;-63
2022/03/01 09:49:46;;;;;;;16.83;1.58;;;;;;;23.97;34.46;102803.47;5053922;28;20146;-62
2022/03/01 09:52:12;;;;;;;18.73;2.75;;;;;;;24.00;34.49;102807.75;5054675;28;20040;-64
2022/03/01 09:54:38;;;;;;;14.98;2.35;;;;;;;24.00;34.49;102808.63;5054289;28;20059;-64
2022/03/01 09:57:03;;;;;;;8.88;1.10;;;;;;;24.00;34.68;102802.28;5067323;28;20052;-63
2022/03/01 09:59:28;;;;;;;9.90;1.48;;;;;;;23.94;34.91;102797.44;5067529;28;20363;-63
2022/03/01 10:01:55;;;;;;;9.82;1.92;;;;;;;23.96;34.50;102795.38;5055423;28;20422;-63
2022/03/01 10:04:21;;;;;;;5.30;1.35;;;;;;;23.95;35.13;102793.66;5054788;28;20429;-63
2022/03/01 10:06:48;;;;;;;12.73;1.75;;;;;;;24.01;34.44;102798.50;5040932;28;20033;-63
2022/03/01 10:09:19;;;;;;;19.10;2.05;;;;;;;23.95;34.93;102800.03;5046068;28;20414;-63
2022/03/01 10:11:47;;;;;;;13.23;2.45;;;;;;;24.00;35.12;102802.28;5042877;28;20078;-64
2022/03/01 10:14:12;;;;;;;14.63;2.15;;;;;;;24.01;34.91;102804.84;5053255;28;20044;-62
2022/03/01 10:16:45;;;;;;;10.52;1.92;;;;;;;24.00;34.27;102805.03;5055381;28;20112;-62
2022/03/01 10:19:20;;;;;;;11.25;2.85;;;;;;;24.01;34.58;102804.00;5054210;28;20025;-63
2022/03/01 10:21:48;;;;;;;15.85;2.47;;;;;;;23.96;35.22;102814.63;5048372;28;20132;-64
2022/03/01 10:24:15;;;;;;;13.82;2.65;;;;;;;23.92;35.32;102814.09;5053440;28;20020;-64
2022/03/01 10:26:42;;;;;;;15.57;2.67;;;;;;;23.96;35.00;102814.63;5054232;28;20017;-63
2022/03/01 10:29:08;;;;;;;10.60;2.42;;;;;;;23.94;35.08;102806.53;5039044;28;20021;-64
2022/03/01 10:31:34;;;;;;;11.70;2.17;;;;;;;23.91;34.61;102804.13;5047648;28;20418;-65
2022/03/01 10:34:06;;;;;;;12.07;2.25;;;;;;;23.97;34.63;102808.09;5052840;28;20587;-66
2022/03/01 10:36:44;;;;;;;7.10;1.50;;;;;;;24.04;35.14;102814.69;5052963;28;20357;-64
2022/03/01 10:39:20;;;;;;;6.38;1.20;;;;;;;23.98;34.39;102809.81;5054871;28;20461;-61
2022/03/01 10:41:48;;;;;;;6.03;1.65;;;;;;;24.01;34.97;102814.97;5052982;28;20037;-65
2022/03/01 10:44:20;;;;;;;4.70;1.35;;;;;;;24.11;34.58;102804.75;5050384;28;20029;-67
2022/03/01 10:46:50;;;;;;;4.38;0.73;;;;;;;24.14;34.80;102815.41;5049920;28;20131;-67
2022/03/01 10:49:20;;;;;;;3.20;1.23;;;;;;;24.14;34.75;102815.41;5050060;28;20086;-67
2022/03/01 10:51:55;;;;;;;4.65;0.90;;;;;;;24.15;34.88;102800.66;5033152;28;20111;-67
2022/03/01 10:54:35;;;;;;;2.70;0.98;;;;;;;24.17;34.79;102806.84;5032542;28;20032;-67
2022/03/01 10:57:03;;;;;;;2.20;0.68;;;;;;;24.17;34.38;102804.09;5035406;28;20303;-65
2022/03/01 10:59:31;;;;;;;2.22;0.65;;;;;;;24.18;34.30;102802.19;5035659;28;20021;-67
2022/03/01 11:01:57;;;;;;;2.85;0.63;;;;;;;24.19;34.50;102796.56;5043999;28;20063;-67
2022/03/01 11:04:25;;;;;;;1.83;0.85;;;;;;;24.19;34.39;102780.09;5033810;28;20069;-67
2022/03/01 11:06:53;;;;;;;1.73;0.90;;;;;;;24.20;34.25;102795.53;5034437;28;20025;-67
2022/03/01 11:09:19;;;;;;;0.70;0.20;;;;;;;24.20;34.37;102787.31;5044844;28;20033;-67
2022/03/01 11:11:45;;;;;;;0.73;0.50;;;;;;;24.22;33.75;102776.13;5054140;28;20100;-67
2022/03/01 11:14:14;;;;;;;1.23;0.20;;;;;;;24.21;33.87;102772.53;5053917;28;20207;-67
2022/03/01 11:17:07;;;;;;;1.17;0.30;;;;;;;24.20;33.67;102759.81;5053948;28;20036;-67
2022/03/01 11:20:01;;;;;;;0.55;0.35;;;;;;;24.21;34.30;102761.53;5052651;28;20136;-67
2022/03/01 11:22:41;;;;;;;0.93;0.20;;;;;;;24.21;33.77;102767.03;5053752;28;20036;-67
2022/03/01 11:25:14;;;;;;;1.60;0.32;;;;;;;24.22;33.90;102751.41;5051614;28;20071;-67
2022/03/01 11:27:45;;;;;;;0.50;0.22;;;;;;;24.23;33.74;102764.13;5052943;28;20056;-65